Time;durP1;ratioP1;P1;durP2;ratioP2;P2;SDS_P1;SDS_P2;PMS_P1;PMS_P2;Temp;Humidity;BMP_temperature;BMP_pressure;BME280_temperature;BME280_humidity;BME280_pressure;Samples;Min_cycle;Max_cycle;Signal;HPM_P1;HPM_P2
2023/11/23 00:00:31;;;;;;;;;;;;;;;11.62;73.87;99969.88;5091950;28;19919;-76
2023/11/23 00:02:56;;;;;;;;;;;;;;;11.62;74.00;99961.94;5091944;28;19912;-77
2023/11/23 00:05:21;;;;;;;;;;;;;;;11.66;72.62;99960.59;5090605;28;19916;-77
2023/11/23 00:07:47;;;;;;;;;;;;;;;11.65;73.29;99968.72;5092299;28;19939;-77
2023/11/23 00:10:12;;;;;;;;;;;;;;;11.64;73.70;99959.13;5091826;28;19908;-77
2023/11/23 00:12:37;;;;;;;;;;;;;;;11.63;74.24;99965.41;5091820;28;19919;-77
2023/11/23 00:15:03;;;;;;;;;;;;;;;11.61;73.54;99970.88;5091735;28;20396;-78
2023/11/23 00:17:29;;;;;;;;;;;;;;;11.62;72.69;99975.16;5091547;28;19919;-77
2023/11/23 00:19:55;;;;;;;;;;;;;;;11.60;72.62;99971.06;5091456;28;19927;-77
2023/11/23 00:22:21;;;;;;;;;;;;;;;11.57;73.58;99980.16;5093979;28;20452;-77
2023/11/23 00:24:46;;;;;;;;;;;;;;;11.59;72.46;99977.34;5095923;28;19942;-76
2023/11/23 00:27:14;;;;;;;;;;;;;;;11.57;72.40;99981.97;5096673;28;19995;-78
2023/11/23 00:29:40;;;;;;;;;;;;;;;11.57;72.81;99989.91;5095121;28;19919;-77
2023/11/23 00:32:07;;;;;;;;;;;;;;;11.57;72.41;99984.63;5096186;28;19912;-77
2023/11/23 00:34:32;;;;;;;;;;;;;;;11.52;73.01;99985.16;5096136;28;19912;-77
2023/11/23 00:36:57;;;;;;;;;;;;;;;11.48;73.65;99994.41;5096084;28;19912;-77
2023/11/23 00:39:23;;;;;;;;;;;;;;;11.52;74.01;100001.00;5095923;28;19916;-78
2023/11/23 00:41:49;;;;;;;;;;;;;;;11.55;72.97;100008.59;5095937;28;19927;-78
2023/11/23 00:44:14;;;;;;;;;;;;;;;11.51;73.46;99996.72;5095836;28;19912;-77
2023/11/23 00:46:39;;;;;;;;;;;;;;;11.50;73.17;100005.66;5095332;28;20419;-78
2023/11/23 00:49:05;;;;;;;;;;;;;;;11.46;73.30;100007.81;5095346;28;20369;-78
2023/11/23 00:51:36;;;;;;;;;;;;;;;11.49;72.26;100004.00;5095368;28;19911;-77
2023/11/23 00:54:04;;;;;;;;;;;;;;;11.48;72.97;100020.84;5095309;28;19934;-77
2023/11/23 00:56:29;;;;;;;;;;;;;;;11.47;73.17;100016.56;5095225;28;19912;-78
2023/11/23 00:58:54;;;;;;;;;;;;;;;11.44;73.07;100017.72;5095167;28;19912;-77
2023/11/23 01:01:19;;;;;;;;;;;;;;;11.49;72.11;100014.56;5077021;28;20298;-77
2023/11/23 01:03:45;;;;;;;;;;;;;;;11.48;72.53;100015.56;5077204;28;19912;-78
2023/11/23 01:06:10;;;;;;;;;;;;;;;11.46;72.98;100020.22;5095306;28;19916;-78
2023/11/23 01:08:36;;;;;;;;;;;;;;;11.50;72.39;100020.69;5077069;28;19935;-77
2023/11/23 01:11:02;;;;;;;;;;;;;;;11.49;72.64;100025.16;5095099;28;19913;-77
2023/11/23 01:13:27;;;;;;;;;;;;;;;11.47;72.56;100024.50;5094906;28;20437;-78
2023/11/23 01:15:53;;;;;;;;;;;;;;;11.46;72.94;100022.84;5094966;28;19908;-78
2023/11/23 01:18:18;;;;;;;;;;;;;;;11.44;73.07;100028.31;5094879;28;19920;-78
2023/11/23 01:20:44;;;;;;;;;;;;;;;11.42;73.02;100025.00;5095039;28;19912;-78
2023/11/23 01:23:11;;;;;;;;;;;;;;;11.39;73.76;100028.00;5094251;28;21352;-77
2023/11/23 01:25:36;;;;;;;;;;;;;;;11.40;72.90;100021.72;5094714;28;19922;-78
2023/11/23 01:28:01;;;;;;;;;;;;;;;11.39;73.37;100024.53;5076704;28;19912;-77
2023/11/23 01:30:27;;;;;;;;;;;;;;;11.38;73.39;100029.00;5094762;28;19962;-77
2023/11/23 01:32:52;;;;;;;;;;;;;;;11.38;73.29;100030.81;5076017;28;20011;-77
2023/11/23 01:35:20;;;;;;;;;;;;;;;11.31;74.66;100030.69;5094085;28;20423;-78
2023/11/23 01:37:46;;;;;;;;;;;;;;;11.30;74.10;100036.97;5094588;28;20424;-77
2023/11/23 01:40:11;;;;;;;;;;;;;;;11.29;73.84;100042.41;5094628;28;20003;-77
2023/11/23 01:42:37;;;;;;;;;;;;;;;11.31;73.17;100037.78;5094606;28;19912;-78
2023/11/23 01:45:02;;;;;;;;;;;;;;;11.33;73.01;100044.53;5093061;28;20011;-77
2023/11/23 01:47:28;;;;;;;;;;;;;;;11.32;72.46;100053.47;5093116;28;19947;-77
2023/11/23 01:49:53;;;;;;;;;;;;;;;11.24;73.45;100050.84;5094347;28;20007;-77
2023/11/23 01:52:19;;;;;;;;;;;;;;;11.20;74.19;100052.19;5076082;28;19912;-78
2023/11/23 01:54:44;;;;;;;;;;;;;;;11.22;72.84;100058.13;5094166;28;19912;-78
2023/11/23 01:57:11;;;;;;;;;;;;;;;11.19;74.37;100052.34;5094165;28;19912;-77
2023/11/23 01:59:37;;;;;;;;;;;;;;;11.24;73.01;100056.16;5094127;28;19912;-77
2023/11/23 02:02:03;;;;;;;;;;;;;;;11.18;73.14;100048.91;5094118;28;20351;-78
2023/11/23 02:04:29;;;;;;;;;;;;;;;11.18;74.63;100046.25;5094116;28;19914;-77
2023/11/23 02:06:54;;;;;;;;;;;;;;;11.16;75.15;100047.41;5094352;28;20428;-78
2023/11/23 02:09:19;;;;;;;;;;;;;;;11.16;73.14;100048.25;5094045;28;19916;-77
2023/11/23 02:11:45;;;;;;;;;;;;;;;11.14;74.30;100055.47;5094441;28;19918;-78
2023/11/23 02:14:11;;;;;;;;;;;;;;;11.13;74.08;100059.13;5094310;28;19918;-77
2023/11/23 02:16:37;;;;;;;;;;;;;;;11.11;73.83;100059.28;5093856;28;19926;-77
2023/11/23 02:19:04;;;;;;;;;;;;;;;11.12;73.75;100052.19;5093878;28;20446;-77
2023/11/23 02:21:29;;;;;;;;;;;;;;;11.13;73.94;100059.13;5075698;28;19965;-77
2023/11/23 02:23:54;;;;;;;;;;;;;;;11.13;74.34;100062.59;5093921;28;19916;-77
2023/11/23 02:26:20;;;;;;;;;;;;;;;11.13;74.40;100069.69;5092407;28;19916;-77
2023/11/23 02:28:45;;;;;;;;;;;;;;;11.13;73.54;100070.50;5093617;28;20380;-77
2023/11/23 02:31:11;;;;;;;;;;;;;;;11.13;74.43;100069.69;5093500;28;19919;-78
2023/11/23 02:33:36;;;;;;;;;;;;;;;11.12;73.71;100063.56;5093690;28;19985;-77
2023/11/23 02:36:02;;;;;;;;;;;;;;;11.14;73.42;100073.97;5093431;28;19919;-76
2023/11/23 02:38:29;;;;;;;;;;;;;;;11.16;73.39;100074.66;5093625;28;19912;-77
2023/11/23 02:40:54;;;;;;;;;;;;;;;11.10;74.74;100075.31;5093572;28;19912;-76
2023/11/23 02:43:19;;;;;;;;;;;;;;;11.09;73.98;100071.03;5093665;28;19920;-77
2023/11/23 02:45:45;;;;;;;;;;;;;;;11.08;74.41;100074.66;5075236;28;19923;-77
2023/11/23 02:48:11;;;;;;;;;;;;;;;11.07;73.67;100075.66;5094375;28;20373;-77
2023/11/23 02:50:36;;;;;;;;;;;;;;;11.07;73.86;100080.94;5093306;28;19919;-78
2023/11/23 02:53:03;;;;;;;;;;;;;;;11.06;72.79;100095.13;5093191;28;19934;-77
2023/11/23 02:55:28;;;;;;;;;;;;;;;11.05;73.91;100089.03;5093081;28;19915;-77
2023/11/23 02:57:54;;;;;;;;;;;;;;;11.06;73.70;100092.50;5093214;28;19912;-77
2023/11/23 03:00:19;;;;;;;;;;;;;;;11.06;73.37;100088.03;5075008;28;19923;-77
2023/11/23 03:02:45;;;;;;;;;;;;;;;11.05;73.31;100093.50;5093052;28;20304;-78
2023/11/23 03:05:10;;;;;;;;;;;;;;;11.04;73.26;100105.88;5093035;28;20014;-78
2023/11/23 03:07:36;;;;;;;;;;;;;;;11.02;73.58;100109.69;5093244;28;20381;-77
2023/11/23 03:10:01;;;;;;;;;;;;;;;11.00;74.29;100103.72;5074870;28;19919;-76
2023/11/23 03:12:26;;;;;;;;;;;;;;;11.00;74.18;100103.72;5092600;28;19937;-77
2023/11/23 03:14:51;;;;;;;;;;;;;;;11.01;73.37;100108.03;5092550;28;20002;-77
2023/11/23 03:17:18;;;;;;;;;;;;;;;10.97;74.65;100109.34;5092913;28;19912;-77
2023/11/23 03:19:44;;;;;;;;;;;;;;;10.97;73.03;100112.81;5074378;28;19920;-77
2023/11/23 03:22:09;;;;;;;;;;;;;;;10.95;72.93;100119.25;5092748;28;19923;-77
2023/11/23 03:24:35;;;;;;;;;;;;;;;10.91;74.56;100116.13;5092562;28;19916;-77
2023/11/23 03:27:00;;;;;;;;;;;;;;;10.92;74.56;100122.22;5092553;28;20332;-77
2023/11/23 03:29:26;;;;;;;;;;;;;;;10.94;73.77;100117.59;5092563;28;19912;-78
2023/11/23 03:31:51;;;;;;;;;;;;;;;10.92;74.50;100115.13;5092408;28;19952;-77
2023/11/23 03:34:17;;;;;;;;;;;;;;;10.91;74.42;100120.59;5092249;28;19912;-76
2023/11/23 03:36:43;;;;;;;;;;;;;;;10.93;73.83;100121.25;5092260;28;19912;-78
2023/11/23 03:39:08;;;;;;;;;;;;;;;10.88;74.31;100124.38;5092565;28;19912;-77
2023/11/23 03:41:34;;;;;;;;;;;;;;;10.86;73.91;100131.66;5092452;28;19920;-77
2023/11/23 03:43:59;;;;;;;;;;;;;;;10.88;74.71;100131.47;5092470;28;20317;-77
2023/11/23 03:46:24;;;;;;;;;;;;;;;10.85;74.98;100121.25;5092675;28;19923;-78
2023/11/23 03:48:50;;;;;;;;;;;;;;;10.86;74.87;100133.47;5092206;28;19919;-77
2023/11/23 03:51:15;;;;;;;;;;;;;;;10.89;73.31;100131.31;5092212;28;19919;-77
2023/11/23 03:53:41;;;;;;;;;;;;;;;10.86;74.24;100133.47;5092527;28;20103;-77
2023/11/23 03:56:06;;;;;;;;;;;;;;;10.82;74.65;100141.72;5091699;28;20466;-76
2023/11/23 03:58:32;;;;;;;;;;;;;;;10.84;74.16;100138.91;5092175;28;19919;-76
2023/11/23 04:00:57;;;;;;;;;;;;;;;10.87;74.81;100140.41;5092145;28;20385;-77
2023/11/23 04:03:22;;;;;;;;;;;;;;;10.86;75.23;100146.66;5092226;28;20385;-77
2023/11/23 04:05:48;;;;;;;;;;;;;;;10.85;74.03;100140.56;5073979;28;19970;-77
2023/11/23 04:08:13;;;;;;;;;;;;;;;10.86;75.29;100149.31;5092167;28;19950;-77
2023/11/23 04:10:38;;;;;;;;;;;;;;;10.86;75.05;100157.25;5092108;28;19962;-77
2023/11/23 04:13:04;;;;;;;;;;;;;;;10.86;74.84;100159.88;5092097;28;19919;-76
2023/11/23 04:15:30;;;;;;;;;;;;;;;10.81;74.80;100163.84;5092030;28;19919;-77
2023/11/23 04:17:55;;;;;;;;;;;;;;;10.80;72.94;100164.84;5091754;28;19913;-77
2023/11/23 04:20:20;;;;;;;;;;;;;;;10.76;73.99;100162.69;5092289;28;19912;-76
2023/11/23 04:22:46;;;;;;;;;;;;;;;10.71;75.19;100168.47;5092075;28;19938;-77
2023/11/23 04:25:11;;;;;;;;;;;;;;;10.71;74.97;100176.38;5091554;28;20057;-76
2023/11/23 04:27:36;;;;;;;;;;;;;;;10.72;74.91;100177.22;5091884;28;19919;-77
2023/11/23 04:30:01;;;;;;;;;;;;;;;10.73;75.16;100171.75;5091816;28;19919;-76
2023/11/23 04:32:27;;;;;;;;;;;;;;;10.75;74.03;100172.41;5091778;28;20000;-77
2023/11/23 04:34:52;;;;;;;;;;;;;;;10.75;74.88;100169.78;5091801;28;19912;-77
2023/11/23 04:37:18;;;;;;;;;;;;;;;10.75;75.03;100177.72;5091667;28;19916;-77
2023/11/23 04:39:43;;;;;;;;;;;;;;;10.78;74.60;100171.28;5091566;28;19904;-76
2023/11/23 04:42:08;;;;;;;;;;;;;;;10.76;74.50;100174.06;5091909;28;19951;-76
2023/11/23 04:44:34;;;;;;;;;;;;;;;10.75;74.92;100166.31;5091914;28;20307;-76
2023/11/23 04:46:59;;;;;;;;;;;;;;;10.73;74.34;100173.56;5091580;28;19977;-77
2023/11/23 04:49:24;;;;;;;;;;;;;;;10.73;74.86;100177.03;5091681;28;20353;-77
2023/11/23 04:51:50;;;;;;;;;;;;;;;10.76;72.94;100183.81;5091892;28;19912;-76
2023/11/23 04:54:16;;;;;;;;;;;;;;;10.73;74.15;100182.31;5091755;28;19919;-77
2023/11/23 04:56:41;;;;;;;;;;;;;;;10.74;73.05;100186.63;5090304;28;19912;-76
2023/11/23 04:59:06;;;;;;;;;;;;;;;10.73;74.53;100195.53;5091544;28;19912;-76
2023/11/23 05:01:32;;;;;;;;;;;;;;;10.71;74.03;100186.94;5091668;28;19919;-77
2023/11/23 05:03:57;;;;;;;;;;;;;;;10.74;74.48;100188.44;5091576;28;19919;-76
2023/11/23 05:06:23;;;;;;;;;;;;;;;10.74;74.85;100194.53;5091866;28;19923;-76
2023/11/23 05:08:48;;;;;;;;;;;;;;;10.74;75.09;100196.34;5094471;28;19912;-76
2023/11/23 05:11:14;;;;;;;;;;;;;;;10.74;75.50;100204.28;5095287;28;19918;-77
2023/11/23 05:13:39;;;;;;;;;;;;;;;10.76;74.84;100202.31;5095199;28;20388;-76
2023/11/23 05:16:05;;;;;;;;;;;;;;;10.76;73.72;100207.59;5095505;28;19983;-77
2023/11/23 05:18:31;;;;;;;;;;;;;;;10.76;74.37;100215.50;5094978;28;19927;-76
2023/11/23 05:20:56;;;;;;;;;;;;;;;10.77;74.05;100218.00;5094958;28;19935;-76
2023/11/23 05:23:21;;;;;;;;;;;;;;;10.80;74.38;100215.03;5094922;28;19991;-76
2023/11/23 05:25:47;;;;;;;;;;;;;;;10.81;74.16;100218.50;5094964;28;19916;-76
2023/11/23 05:28:12;;;;;;;;;;;;;;;10.76;73.43;100216.34;5095146;28;19912;-77
2023/11/23 05:30:38;;;;;;;;;;;;;;;10.76;73.56;100223.44;5095114;28;19912;-76
2023/11/23 05:33:04;;;;;;;;;;;;;;;10.73;73.88;100229.88;5095171;28;20000;-77
2023/11/23 05:35:30;;;;;;;;;;;;;;;10.70;73.96;100232.00;5094998;28;19960;-76
2023/11/23 05:37:56;;;;;;;;;;;;;;;10.72;74.94;100233.50;5095102;28;20442;-77
2023/11/23 05:40:21;;;;;;;;;;;;;;;10.72;74.18;100244.06;5095280;28;19913;-76
2023/11/23 05:42:46;;;;;;;;;;;;;;;10.69;73.57;100236.47;5094768;28;19958;-77
2023/11/23 05:45:13;;;;;;;;;;;;;;;10.68;74.22;100241.91;5094494;28;19915;-77
2023/11/23 05:47:38;;;;;;;;;;;;;;;10.69;74.24;100241.75;5094726;28;20384;-77
2023/11/23 05:50:04;;;;;;;;;;;;;;;10.70;73.98;100238.13;5076221;28;20015;-77
2023/11/23 05:52:29;;;;;;;;;;;;;;;10.67;74.52;100230.50;5076119;28;20043;-77
2023/11/23 05:54:55;;;;;;;;;;;;;;;10.65;73.47;100237.78;5076046;28;19908;-77
2023/11/23 05:57:21;;;;;;;;;;;;;;;10.62;73.87;100247.84;5093557;28;19998;-77
2023/11/23 05:59:46;;;;;;;;;;;;;;;10.57;74.03;100250.97;5094393;28;19908;-76
2023/11/23 06:02:11;;;;;;;;;;;;;;;10.59;74.38;100248.97;5069535;28;19916;-76
2023/11/23 06:04:37;;;;;;;;;;;;;;;10.65;73.84;100253.63;5073788;28;19954;-77
2023/11/23 06:07:03;;;;;;;;;;;;;;;10.63;74.12;100260.88;5084736;28;20398;-76
2023/11/23 06:09:29;;;;;;;;;;;;;;;10.61;74.10;100254.09;5094065;28;20016;-77
2023/11/23 06:11:55;;;;;;;;;;;;;;;10.63;74.12;100260.03;5094032;28;19995;-77
2023/11/23 06:14:21;;;;;;;;;;;;;;;10.63;74.30;100252.94;5093713;28;20012;-77
2023/11/23 06:16:46;;;;;;;;;;;;;;;10.64;73.78;100267.81;5092023;28;19943;-77
2023/11/23 06:19:11;;;;;;;;;;;;;;;10.64;73.93;100270.44;5074703;28;19999;-76
2023/11/23 06:21:36;;;;;;;;;;;;;;;10.63;73.94;100268.78;5093507;28;20316;-77
2023/11/23 06:24:03;;;;;;;;;;;;;;;10.65;74.05;100276.56;5075400;28;19912;-77
2023/11/23 06:26:29;;;;;;;;;;;;;;;10.62;74.41;100277.72;5090001;28;19928;-76
2023/11/23 06:28:54;;;;;;;;;;;;;;;10.66;73.67;100284.31;5075438;28;19912;-76
2023/11/23 06:31:19;;;;;;;;;;;;;;;10.65;73.74;100273.91;5093696;28;19919;-76
2023/11/23 06:33:45;;;;;;;;;;;;;;;10.61;73.22;100275.22;5093562;28;19919;-76
2023/11/23 06:36:10;;;;;;;;;;;;;;;10.57;73.89;100274.72;5090094;28;19956;-77
2023/11/23 06:38:36;;;;;;;;;;;;;;;10.49;73.70;100283.44;5093188;28;19912;-76
2023/11/23 06:41:01;;;;;;;;;;;;;;;10.50;73.10;100281.63;5093350;28;19913;-76
2023/11/23 06:43:26;;;;;;;;;;;;;;;10.50;74.66;100284.28;5087494;28;20320;-76
2023/11/23 06:45:51;;;;;;;;;;;;;;;10.56;73.63;100288.91;5055009;28;19916;-77
2023/11/23 06:48:17;;;;;;;;;;;;;;;10.60;73.95;100284.13;5062088;28;19916;-77
2023/11/23 06:50:42;;;;;;;;;;;;;;;10.63;74.13;100282.00;5093137;28;19962;-77
2023/11/23 06:53:08;;;;;;;;;;;;;;;10.66;73.10;100283.50;5078774;28;19995;-76
2023/11/23 06:55:34;;;;;;;;;;;;;;;10.62;73.52;100284.81;5078943;28;19998;-77
2023/11/23 06:57:59;;;;;;;;;;;;;;;10.64;73.27;100277.53;5073757;28;20428;-77
2023/11/23 07:00:25;;;;;;;;;;;;;;;10.65;73.42;100276.56;5086179;28;19956;-75
2023/11/23 07:02:57;;;;;;;;;;;;;;;10.67;73.38;100279.88;5075222;28;19916;-77
2023/11/23 07:05:26;;;;;;;;;;;;;;;10.68;72.20;100281.53;5081630;28;19985;-77
2023/11/23 07:07:53;;;;;;;;;;;;;;;10.72;72.31;100282.84;5077095;28;19917;-77
2023/11/23 07:10:18;;;;;;;;;;;;;;;10.71;73.35;100289.13;5077365;28;20015;-77
2023/11/23 07:12:47;;;;;;;;;;;;;;;10.72;72.90;100285.50;5082641;28;19994;-76
2023/11/23 07:15:13;;;;;;;;;;;;;;;10.72;72.76;100294.25;5079694;28;19916;-76
2023/11/23 07:17:39;;;;;;;;;;;;;;;10.72;73.50;100285.50;5087821;28;19998;-76
2023/11/23 07:20:05;;;;;;;;;;;;;;;10.71;72.96;100278.56;5083851;28;19927;-77
2023/11/23 07:22:30;;;;;;;;;;;;;;;10.71;73.34;100284.66;5081486;28;19916;-76
2023/11/23 07:24:56;;;;;;;;;;;;;;;10.73;73.07;100290.63;5079786;28;19922;-77
2023/11/23 07:27:21;;;;;;;;;;;;;;;10.76;73.01;100295.56;5085042;28;19976;-76
2023/11/23 07:29:46;;;;;;;;;;;;;;;10.80;73.44;100294.25;5082781;28;19917;-76
2023/11/23 07:32:12;;;;;;;;;;;;;;;10.81;73.58;100292.44;5075505;28;20007;-77
2023/11/23 07:34:37;;;;;;;;;;;;;;;10.75;72.12;100291.28;5090052;28;19916;-77
2023/11/23 07:37:03;;;;;;;;;;;;;;;10.74;72.97;100297.56;5087216;28;20013;-77
2023/11/23 07:39:28;;;;;;;;;;;;;;;10.70;72.79;100306.78;5076847;28;19912;-76
2023/11/23 07:41:53;;;;;;;;;;;;;;;10.67;72.98;100304.47;5078036;28;19908;-76
2023/11/23 07:44:21;;;;;;;;;;;;;;;10.64;73.17;100317.16;5086156;28;19955;-76
2023/11/23 07:46:47;;;;;;;;;;;;;;;10.62;73.17;100314.69;5074013;28;20355;-76
2023/11/23 07:49:12;;;;;;;;;;;;;;;10.61;73.38;100320.13;5079815;28;20011;-77
2023/11/23 07:51:38;;;;;;;;;;;;;;;10.57;73.77;100314.31;5071873;28;20110;-76
2023/11/23 07:54:03;;;;;;;;;;;;;;;10.59;73.72;100325.56;5084034;28;20316;-77
2023/11/23 07:56:28;;;;;;;;;;;;;;;10.61;73.16;100322.75;5090636;28;19965;-75
2023/11/23 07:58:54;;;;;;;;;;;;;;;10.63;74.03;100318.97;5089952;28;20014;-76
2023/11/23 08:01:19;;;;;;;;;;;;;;;10.60;74.40;100324.56;5079777;28;20392;-77
2023/11/23 08:03:44;;;;;;;;;;;;;;;10.61;72.71;100320.94;5088088;28;19916;-76
2023/11/23 08:06:10;;;;;;;;;;;;;;;10.62;73.20;100319.13;5081350;28;20373;-75
2023/11/23 08:08:35;;;;;;;;;;;;;;;10.64;73.68;100322.44;5081224;28;19928;-77
2023/11/23 08:11:00;;;;;;;;;;;;;;;10.63;74.00;100316.34;5082430;28;19916;-77
2023/11/23 08:13:26;;;;;;;;;;;;;;;10.65;73.63;100314.34;5073392;28;19955;-76
2023/11/23 08:15:51;;;;;;;;;;;;;;;10.68;73.17;100321.13;5076474;28;19981;-77
2023/11/23 08:18:18;;;;;;;;;;;;;;;10.67;73.66;100320.31;5071447;28;20290;-77
2023/11/23 08:20:44;;;;;;;;;;;;;;;10.66;73.67;100323.94;5074215;28;19928;-76
2023/11/23 08:23:12;;;;;;;;;;;;;;;10.64;73.43;100325.91;5086649;28;19965;-77
2023/11/23 08:25:37;;;;;;;;;;;;;;;10.66;73.63;100323.94;5071295;28;19927;-77
2023/11/23 08:28:03;;;;;;;;;;;;;;;10.70;72.51;100332.38;5084727;28;19916;-77
2023/11/23 08:30:28;;;;;;;;;;;;;;;10.67;72.90;100332.69;5064068;28;19981;-76
2023/11/23 08:32:54;;;;;;;;;;;;;;;10.68;73.51;100329.88;5075833;28;20092;-78
2023/11/23 08:35:19;;;;;;;;;;;;;;;10.70;73.07;100324.44;5075929;28;19921;-77
2023/11/23 08:37:45;;;;;;;;;;;;;;;10.69;72.98;100331.53;5084729;28;19909;-76
2023/11/23 08:40:11;;;;;;;;;;;;;;;10.67;72.76;100325.59;5092526;28;19951;-77
2023/11/23 08:42:39;;;;;;;;;;;;;;;10.68;72.87;100324.59;5080215;28;19923;-76
2023/11/23 08:45:04;;;;;;;;;;;;;;;10.73;72.89;100319.66;5086554;28;19931;-76
2023/11/23 08:47:31;;;;;;;;;;;;;;;10.73;72.35;100321.47;5088852;28;19920;-76
2023/11/23 08:49:57;;;;;;;;;;;;;;;10.70;72.35;100325.28;5080528;28;19921;-76
2023/11/23 08:52:24;;;;;;;;;;;;;;;10.63;72.77;100311.06;5090039;28;20357;-76
2023/11/23 08:54:49;;;;;;;;;;;;;;;10.60;73.43;100303.44;5080788;28;20003;-76
2023/11/23 08:57:14;;;;;;;;;;;;;;;10.61;73.47;100314.84;5090644;28;19963;-76
2023/11/23 08:59:40;;;;;;;;;;;;;;;10.65;72.28;100318.81;5077210;28;19920;-76
2023/11/23 09:02:07;;;;;;;;;;;;;;;10.65;72.67;100319.63;5088815;28;19928;-76
2023/11/23 09:04:36;;;;;;;;;;;;;;;10.67;73.25;100324.75;5082170;28;19920;-76
2023/11/23 09:07:01;;;;;;;;;;;;;;;10.67;72.71;100322.13;5082295;28;19920;-76
2023/11/23 09:09:26;;;;;;;;;;;;;;;10.64;73.47;100307.41;5081389;28;19973;-75
2023/11/23 09:11:52;;;;;;;;;;;;;;;10.64;73.57;100310.06;5081547;28;19923;-75
2023/11/23 09:14:17;;;;;;;;;;;;;;;10.60;72.73;100302.63;5093051;28;19916;-74
2023/11/23 09:16:44;;;;;;;;;;;;;;;10.59;73.68;100300.97;5093345;28;20404;-75
2023/11/23 09:19:09;;;;;;;;;;;;;;;10.59;73.73;100299.16;5085370;28;19920;-76
2023/11/23 09:21:36;;;;;;;;;;;;;;;10.60;73.67;100298.16;5077764;28;19913;-76
2023/11/23 09:24:05;;;;;;;;;;;;;;;10.62;73.23;100301.47;5082053;28;19916;-76
2023/11/23 09:26:34;;;;;;;;;;;;;;;10.62;73.08;100298.84;5086062;28;20332;-76
2023/11/23 09:28:59;;;;;;;;;;;;;;;10.63;73.61;100289.09;5083516;28;19923;-76
2023/11/23 09:31:29;;;;;;;;;;;;;;;10.65;73.43;100287.94;5082212;28;19916;-75
2023/11/23 09:33:55;;;;;;;;;;;;;;;10.62;73.07;100285.63;5092359;28;19916;-76
2023/11/23 09:36:20;;;;;;;;;;;;;;;10.62;73.29;100280.34;5089778;28;19989;-76
2023/11/23 09:38:46;;;;;;;;;;;;;;;10.65;73.20;100282.66;5059711;28;19916;-76
2023/11/23 09:41:14;;;;;;;;;;;;;;;10.67;73.06;100277.22;5080920;28;20011;-76
2023/11/23 09:43:41;;;;;;;;;;;;;;;10.66;73.35;100279.03;5088540;28;20408;-76
2023/11/23 09:46:06;;;;;;;;;;;;;;;10.68;71.87;100269.13;5084834;28;19920;-76
2023/11/23 09:48:33;;;;;;;;;;;;;;;10.65;72.90;100273.91;5080981;28;19917;-76
2023/11/23 09:50:59;;;;;;;;;;;;;;;10.63;73.19;100282.00;5093498;28;19913;-76
2023/11/23 09:53:24;;;;;;;;;;;;;;;10.67;71.89;100278.06;5077043;28;20301;-76
2023/11/23 09:55:52;;;;;;;;;;;;;;;10.66;72.63;100271.13;5082435;28;19945;-76
2023/11/23 09:58:18;;;;;;;;;;;;;;;10.64;72.08;100265.16;5091651;28;19939;-76
2023/11/23 10:00:43;;;;;;;;;;;;;;;10.67;73.38;100249.00;5084994;28;20381;-76
2023/11/23 10:03:11;;;;;;;;;;;;;;;10.72;72.29;100257.25;5083956;28;19916;-76
2023/11/23 10:05:38;;;;;;;;;;;;;;;10.72;73.60;100251.16;5080641;28;19928;-76
2023/11/23 10:08:04;;;;;;;;;;;;;;;10.73;73.46;100239.59;5077849;28;19921;-76
2023/11/23 10:10:29;;;;;;;;;;;;;;;10.72;73.22;100251.97;5083079;28;19923;-76
2023/11/23 10:12:55;;;;;;;;;;;;;;;10.72;73.48;100249.34;5079193;28;19916;-77
2023/11/23 10:15:21;;;;;;;;;;;;;;;10.72;72.98;100246.69;5059641;28;20337;-76
2023/11/23 10:17:47;;;;;;;;;;;;;;;10.72;72.70;100238.78;5075350;28;20009;-75
2023/11/23 10:20:16;;;;;;;;;;;;;;;10.70;72.59;100237.28;5075395;28;19970;-76
2023/11/23 10:22:48;;;;;;;;;;;;;;;10.68;73.71;100233.97;5073633;28;19945;-76
2023/11/23 10:25:31;;;;;;;;;;;;;;;10.69;73.16;100236.47;5075876;28;19932;-77
2023/11/23 10:27:58;;;;;;;;;;;;;;;10.68;72.93;100233.97;5081148;28;19916;-76
2023/11/23 10:30:24;;;;;;;;;;;;;;;10.68;73.15;100228.69;5062989;28;19957;-76
2023/11/23 10:32:50;;;;;;;;;;;;;;;10.69;72.83;100217.97;5091166;28;20377;-76
2023/11/23 10:35:16;;;;;;;;;;;;;;;10.66;73.44;100223.59;5081046;28;19931;-75
2023/11/23 10:37:42;;;;;;;;;;;;;;;10.66;72.64;100228.88;5084088;28;20336;-76
2023/11/23 10:40:09;;;;;;;;;;;;;;;10.67;73.33;100224.41;5066665;28;19923;-76
2023/11/23 10:42:35;;;;;;;;;;;;;;;10.67;73.75;100217.31;5072941;28;19912;-76
2023/11/23 10:45:01;;;;;;;;;;;;;;;10.66;74.02;100215.66;5076965;28;19920;-77
2023/11/23 10:47:28;;;;;;;;;;;;;;;10.68;72.83;100207.56;5092029;28;19927;-74
2023/11/23 10:49:54;;;;;;;;;;;;;;;10.69;73.28;100210.06;5080202;28;19995;-75
2023/11/23 10:52:21;;;;;;;;;;;;;;;10.76;73.40;100204.94;5091026;28;20399;-77
2023/11/23 10:54:47;;;;;;;;;;;;;;;10.78;72.82;100206.44;5082223;28;19916;-76
2023/11/23 10:57:14;;;;;;;;;;;;;;;10.82;72.56;100209.56;5081888;28;20306;-76
2023/11/23 10:59:41;;;;;;;;;;;;;;;10.79;72.93;100200.16;5082552;28;19923;-77
2023/11/23 11:02:07;;;;;;;;;;;;;;;10.77;73.52;100196.84;5089501;28;19965;-77
2023/11/23 11:04:33;;;;;;;;;;;;;;;10.75;73.31;100195.38;5075429;28;20429;-77
2023/11/23 11:06:58;;;;;;;;;;;;;;;10.75;73.28;100190.91;5081605;28;20019;-77
2023/11/23 11:09:25;;;;;;;;;;;;;;;10.75;72.44;100177.72;5086644;28;19916;-77
2023/11/23 11:11:55;;;;;;;;;;;;;;;10.72;72.87;100187.78;5079018;28;19955;-77
2023/11/23 11:14:50;;;;;;;;;;;;;;;10.73;72.73;100184.13;5066116;28;20336;-78
2023/11/23 11:17:15;;;;;;;;;;;;;;;10.78;72.59;100173.91;5051834;28;21507;-77
2023/11/23 11:19:47;;;;;;;;;;;;;;;10.80;72.30;100171.94;5061949;28;19970;-78
2023/11/23 11:22:13;;;;;;;;;;;;;;;10.78;72.20;100166.81;5076986;28;19920;-77
2023/11/23 11:24:39;;;;;;;;;;;;;;;10.77;71.92;100167.81;5064103;28;20414;-77
2023/11/23 11:27:08;;;;;;;;;;;;;;;10.81;73.09;100166.47;5082075;28;19916;-77
2023/11/23 11:29:33;;;;;;;;;;;;;;;10.84;72.35;100165.31;5092093;28;19916;-78
2023/11/23 11:32:02;;;;;;;;;;;;;;;10.83;72.84;100166.31;5092062;28;19912;-77
2023/11/23 11:34:31;;;;;;;;;;;;;;;10.86;72.74;100171.28;5088195;28;20357;-76
2023/11/23 11:36:58;;;;;;;;;;;;;;;10.89;73.00;100162.19;5088592;28;19916;-75
2023/11/23 11:39:29;;;;;;;;;;;;;;;10.89;72.67;100155.09;5092274;28;19912;-77
2023/11/23 11:41:59;;;;;;;;;;;;;;;10.91;72.93;100149.66;5089409;28;19928;-76
2023/11/23 11:44:24;;;;;;;;;;;;;;;10.87;72.48;100132.47;5080081;28;19920;-77
2023/11/23 11:46:49;;;;;;;;;;;;;;;10.86;72.34;100138.75;5087237;28;19925;-77
2023/11/23 11:49:15;;;;;;;;;;;;;;;10.81;72.30;100128.69;5075550;28;19920;-76
2023/11/23 11:51:41;;;;;;;;;;;;;;;10.79;73.04;100125.38;5077648;28;20384;-77
2023/11/23 11:54:10;;;;;;;;;;;;;;;10.79;72.67;100117.44;5080231;28;20396;-76
2023/11/23 11:56:36;;;;;;;;;;;;;;;10.86;72.87;100109.69;5078425;28;20358;-76
2023/11/23 11:59:03;;;;;;;;;;;;;;;10.88;72.46;100105.06;5082466;28;19916;-76
2023/11/23 12:01:29;;;;;;;;;;;;;;;10.88;72.47;100100.59;5086297;28;20316;-76
2023/11/23 12:03:55;;;;;;;;;;;;;;;10.87;71.75;100095.50;5075601;28;19916;-77
2023/11/23 12:06:20;;;;;;;;;;;;;;;10.91;72.76;100092.34;5089178;28;19921;-76
2023/11/23 12:08:45;;;;;;;;;;;;;;;10.96;72.89;100078.63;5081667;28;19924;-77
2023/11/23 12:11:21;;;;;;;;;;;;;;;11.01;72.69;100065.75;5071635;28;19916;-77
2023/11/23 12:13:46;;;;;;;;;;;;;;;11.06;71.90;100058.97;5083518;28;19917;-77
2023/11/23 12:16:11;;;;;;;;;;;;;;;11.12;72.34;100057.47;5071430;28;19924;-75
2023/11/23 12:18:37;;;;;;;;;;;;;;;11.13;71.44;100061.75;5075982;28;19927;-77
2023/11/23 12:21:06;;;;;;;;;;;;;;;11.16;71.83;100061.44;5091352;28;19912;-77
2023/11/23 12:23:39;;;;;;;;;;;;;;;11.14;71.93;100061.59;5084878;28;19923;-77
2023/11/23 12:26:04;;;;;;;;;;;;;;;11.16;71.66;100050.88;5061879;28;19920;-76
2023/11/23 12:28:30;;;;;;;;;;;;;;;11.18;71.39;100040.97;5091727;28;19982;-74
2023/11/23 12:30:55;;;;;;;;;;;;;;;11.18;71.94;100046.25;5091406;28;20004;-77